createdAt,value
2023-05-13T00:08:26.398Z,11.57
2023-05-13T00:18:26.243Z,11.48
2023-05-13T00:28:26.348Z,11.39
2023-05-13T00:38:26.260Z,11.30
2023-05-13T00:48:26.231Z,11.21
2023-05-13T00:58:26.244Z,11.18
2023-05-13T01:08:26.254Z,11.27
2023-05-13T01:18:26.387Z,11.48
2023-05-13T01:28:27.536Z,11.72
2023-05-13T01:38:28.551Z,11.88
2023-05-13T01:48:28.403Z,11.89
2023-05-13T01:58:28.604Z,11.82
2023-05-13T02:08:28.439Z,11.72
2023-05-13T02:18:28.514Z,11.62
2023-05-13T02:28:28.371Z,11.56
2023-05-13T02:38:28.689Z,11.64
2023-05-13T02:48:28.531Z,11.89
2023-05-13T02:58:28.994Z,12.24
2023-05-13T03:08:29.423Z,12.53
2023-05-13T03:18:31.438Z,12.63
2023-05-13T03:28:32.079Z,12.49
2023-05-13T03:38:33.012Z,12.20
2023-05-13T03:48:34.529Z,11.88
2023-05-13T03:58:34.743Z,11.64
2023-05-13T04:08:34.561Z,11.51
2023-05-13T04:18:35.402Z,11.49
2023-05-13T04:28:36.207Z,11.58
2023-05-13T04:38:37.344Z,11.78
2023-05-13T04:48:37.727Z,12.04
2023-05-13T04:58:37.819Z,12.36
2023-05-13T05:08:37.964Z,12.84
2023-05-13T05:18:39.730Z,13.53
2023-05-13T05:28:40.433Z,14.45
2023-05-13T05:38:44.382Z,15.62
2023-05-13T05:48:45.473Z,16.82
2023-05-13T05:58:46.080Z,18.33
2023-05-13T06:08:47.087Z,21.30
2023-05-13T06:18:47.728Z,25.55
2023-05-13T06:28:47.731Z,30.02
2023-05-13T06:38:47.931Z,33.96
2023-05-13T06:48:47.792Z,36.92
2023-05-13T06:58:47.827Z,39.33
2023-05-13T07:08:47.841Z,39.64
2023-05-13T07:18:47.775Z,37.41
2023-05-13T07:28:47.826Z,36.13
2023-05-13T07:38:47.820Z,36.31
2023-05-13T07:48:47.854Z,38.15
2023-05-13T07:58:48.853Z,39.76
2023-05-13T08:08:48.863Z,37.96
2023-05-13T08:18:48.910Z,35.19
2023-05-13T08:28:50.533Z,34.37
2023-05-13T08:38:50.949Z,37.06
2023-05-13T08:48:50.928Z,41.96
2023-05-13T08:58:50.946Z,45.70
2023-05-13T09:08:50.987Z,46.38
2023-05-13T09:18:51.148Z,45.70
2023-05-13T09:28:51.111Z,43.83
2023-05-13T09:38:51.298Z,41.93
2023-05-13T09:48:55.161Z,41.89
2023-05-13T09:58:55.160Z,43.00
2023-05-13T10:08:55.055Z,44.70
2023-05-13T10:18:55.172Z,45.18
2023-05-13T10:28:56.028Z,43.99
2023-05-13T10:38:56.196Z,41.17
2023-05-13T10:48:56.271Z,37.57
2023-05-13T10:58:56.132Z,34.45
2023-05-13T11:08:56.487Z,32.30
2023-05-13T11:18:56.335Z,30.53
2023-05-13T11:28:56.319Z,28.97
2023-05-13T11:38:56.195Z,27.81
2023-05-13T11:48:56.286Z,27.06
2023-05-13T11:58:56.310Z,26.73
2023-05-13T12:08:56.431Z,27.00
2023-05-13T12:18:56.667Z,27.45
2023-05-13T12:28:57.655Z,27.74
2023-05-13T12:38:59.797Z,27.76
2023-05-13T12:48:59.288Z,27.59
2023-05-13T12:58:59.340Z,27.38
2023-05-13T13:09:02.396Z,27.08
2023-05-13T13:19:02.372Z,26.87
2023-05-13T13:29:02.398Z,26.85
2023-05-13T13:39:02.406Z,27.23
2023-05-13T13:49:10.130Z,27.60
2023-05-13T13:59:04.513Z,27.44
2023-05-13T14:09:04.479Z,27.27
2023-05-13T14:19:04.682Z,27.33
2023-05-13T14:29:04.525Z,27.09
2023-05-13T14:39:04.473Z,26.77
2023-05-13T14:49:04.545Z,26.57
2023-05-13T14:59:04.502Z,26.05
2023-05-13T15:09:04.275Z,25.61
2023-05-13T15:19:04.544Z,24.92
2023-05-13T15:29:04.639Z,22.90
2023-05-13T15:39:04.613Z,20.00
2023-05-13T15:49:04.672Z,17.94
2023-05-13T15:59:04.645Z,16.75
2023-05-13T16:09:04.606Z,16.35
2023-05-13T16:19:04.730Z,16.70
2023-05-13T16:29:04.614Z,17.32
2023-05-13T16:39:05.117Z,17.76
2023-05-13T16:49:05.786Z,18.27
2023-05-13T16:59:08.742Z,19.00
2023-05-13T17:09:08.702Z,19.58
2023-05-13T17:19:08.738Z,19.90
2023-05-13T17:29:08.849Z,19.97
2023-05-13T17:39:08.838Z,19.93
2023-05-13T17:49:08.893Z,19.75
2023-05-13T17:59:08.792Z,19.42
2023-05-13T18:09:08.832Z,18.98
2023-05-13T18:19:08.826Z,18.49
2023-05-13T18:29:09.025Z,18.00
2023-05-13T18:39:10.602Z,17.54
2023-05-13T18:49:10.802Z,17.11
2023-05-13T18:59:10.836Z,16.68
2023-05-13T19:09:10.921Z,16.26
2023-05-13T19:19:11.009Z,15.89
2023-05-13T19:29:10.984Z,15.55
2023-05-13T19:39:11.026Z,15.23
2023-05-13T19:49:10.963Z,14.91
2023-05-13T19:59:11.036Z,14.61
2023-05-13T20:09:11.622Z,14.36
2023-05-13T20:19:12.120Z,14.17
2023-05-13T20:29:12.271Z,14.01
2023-05-13T20:39:12.153Z,13.82
2023-05-13T20:49:12.252Z,13.61
2023-05-13T20:59:12.062Z,13.40
2023-05-13T21:09:12.012Z,13.21
2023-05-13T21:19:12.204Z,13.02
2023-05-13T21:29:12.025Z,12.82
2023-05-13T21:39:12.042Z,12.66
2023-05-13T21:49:12.250Z,12.56
2023-05-13T21:59:13.063Z,12.50
2023-05-13T22:09:13.080Z,12.44
2023-05-13T22:19:13.228Z,12.36
2023-05-13T22:29:13.204Z,12.29
2023-05-13T22:39:13.931Z,12.24
2023-05-13T22:49:14.244Z,12.16
2023-05-13T22:59:14.187Z,12.04
2023-05-13T23:09:14.128Z,11.90
2023-05-13T23:19:14.240Z,11.79
2023-05-13T23:29:14.185Z,11.70
2023-05-13T23:39:14.248Z,11.60
2023-05-13T23:49:14.177Z,11.53
2023-05-13T23:59:14.323Z,11.45
